This is the latest recevied weather packets stored in our database for station/object K0KDS. If no packets are shown the sender has not sent any weather packets the latest 1 day(s).
| Time | Temp. | Humidity | Pressure | Rain* | Wind** | Luminosity | Snow |
|---|---|---|---|---|---|---|---|
| 1778000547 | 13.33° C | 41% | 1010.1 hPa | 0 mm | 0 m/s | - | - |
| 1777999647 | 13.33° C | 40% | 1010.2 hPa | 0 mm | 0.89 m/s, 306° | - | - |
| 1777998747 | 13.33° C | 41% | 1010.1 hPa | 0 mm | 0 m/s | - | - |
| 1777997847 | 12.22° C | 42% | 1010.1 hPa | 0 mm | 0.89 m/s, 328° | - | - |
| 1777996947 | 11.67° C | 50% | 1010.1 hPa | 0 mm | 0 m/s | - | - |
| 1777996047 | 11.67° C | 45% | 1009.9 hPa | 0 mm | 0 m/s | - | - |
| 1777995147 | 11.67° C | 44% | 1010.2 hPa | 0 mm | 0 m/s | - | - |
| 1777994247 | 11.11° C | 44% | 1010.2 hPa | 0 mm | 0 m/s | - | - |
| 1777993347 | 11.11° C | 48% | 1010 hPa | 0 mm | 0 m/s | - | - |
| 1777992447 | 10.56° C | 48% | 1010.1 hPa | 0 mm | 0 m/s | - | - |
| 1777991547 | 10.56° C | 49% | 1009.9 hPa | 0 mm | 0 m/s | - | - |
| 1777990647 | 10.56° C | 49% | 1009.8 hPa | 0 mm | 0 m/s | - | - |
| 1777989747 | 10.56° C | 50% | 1009.5 hPa | 0 mm | 0 m/s | - | - |
| 1777988847 | 10° C | 54% | 1009.2 hPa | 0 mm | 0 m/s | - | - |
| 1777987947 | 10° C | 58% | 1009.1 hPa | 0 mm | 0 m/s | - | - |
| 1777987047 | 9.44° C | 75% | 1009.1 hPa | 0 mm | 0 m/s | - | - |
| 1777986147 | 8.33° C | 79% | 1008.7 hPa | 0 mm | 0 m/s | - | - |
| 1777985247 | 8.33° C | 79% | 1008.5 hPa | 0 mm | 0 m/s | - | - |
| 1777984347 | 8.33° C | 76% | 1008.7 hPa | 0 mm | 0 m/s | - | - |
| 1777983447 | 7.22° C | 78% | 1008.9 hPa | 0 mm | 0 m/s | - | - |
| 1777982547 | 7.22° C | 78% | 1008.9 hPa | 0 mm | 0 m/s | - | - |
| 1777981647 | 5.56° C | 81% | 1008.9 hPa | 0 mm | 0 m/s | - | - |
| 1777980747 | 5.56° C | 80% | 1008.8 hPa | 0 mm | 0 m/s | - | - |
| 1777979847 | 5.56° C | 74% | 1008.7 hPa | 0 mm | 0 m/s | - | - |
| 1777978947 | 6.67° C | 71% | 1008.5 hPa | 0 mm | 0 m/s | - | - |
* Rain latest hour (hover to see other rain measurements)
** Current wind speed in m/s (hover to see current wind gust speed)